Time;durP1;ratioP1;P1;durP2;ratioP2;P2;SDS_P1;SDS_P2;PMS_P1;PMS_P2;Temp;Humidity;BMP_temperature;BMP_pressure;BME280_temperature;BME280_humidity;BME280_pressure;Samples;Min_cycle;Max_cycle;Signal;HPM_P1;HPM_P2
2021/11/23 00:01:25;;;;;;;3.90;2.77;;;;;;;1.48;62.08;100664.88;1753556;80;21024;-62
2021/11/23 00:03:53;;;;;;;4.97;2.93;;;;;;;1.41;62.35;100674.67;1778756;80;21067;-64
2021/11/23 00:06:21;;;;;;;4.10;2.47;;;;;;;1.41;62.27;100684.69;1761367;80;21068;-64
2021/11/23 00:08:47;;;;;;;4.53;3.33;;;;;;;1.40;62.36;100682.21;1755755;80;20991;-64
2021/11/23 00:11:14;;;;;;;6.12;3.37;;;;;;;1.38;62.34;100682.81;1774302;80;20980;-64
2021/11/23 00:13:41;;;;;;;6.53;3.27;;;;;;;1.30;62.45;100678.99;1768039;80;21075;-63
2021/11/23 00:16:08;;;;;;;6.13;3.97;;;;;;;1.28;62.63;100688.78;1773071;80;21042;-63
2021/11/23 00:18:37;;;;;;;6.20;4.50;;;;;;;1.22;62.79;100689.72;1773496;80;21073;-64
2021/11/23 00:21:04;;;;;;;5.83;3.77;;;;;;;1.17;62.75;100691.41;1776863;79;21602;-63
2021/11/23 00:23:31;;;;;;;8.07;4.03;;;;;;;1.12;62.75;100689.61;1757987;80;21620;-64
2021/11/23 00:25:59;;;;;;;;;;;;;;;1.08;62.64;100688.17;1759480;80;21076;-63
2021/11/23 00:28:27;;;;;;;5.33;3.90;;;;;;;1.07;62.64;100684.69;1754133;80;20409;-65
2021/11/23 00:30:54;;;;;;;8.47;4.70;;;;;;;0.94;62.86;100680.89;1770413;80;20984;-64
2021/11/23 00:33:20;;;;;;;5.58;3.83;;;;;;;0.91;62.83;100678.48;1762375;80;21043;-65
2021/11/23 00:35:47;;;;;;;5.67;3.30;;;;;;;0.83;62.75;100691.37;1759481;80;21079;-64
2021/11/23 00:38:15;;;;;;;;;;;;;;;0.84;62.56;100702.70;1779779;80;21031;-66
2021/11/23 00:40:42;;;;;;;4.62;3.25;;;;;;;0.79;62.88;100713.52;1768924;80;20158;-67
2021/11/23 00:43:09;;;;;;;5.30;3.37;;;;;;;0.74;63.12;100711.74;1772976;80;21098;-66
2021/11/23 00:45:37;;;;;;;4.23;3.30;;;;;;;0.75;63.04;100709.02;1763392;80;21062;-66
2021/11/23 00:48:06;;;;;;;3.63;2.33;;;;;;;0.79;62.81;100700.41;1776759;80;20997;-67
2021/11/23 00:50:33;;;;;;;5.13;2.97;;;;;;;0.78;62.61;100697.44;1767800;80;21585;-65
2021/11/23 00:53:01;;;;;;;2.50;1.87;;;;;;;0.74;62.28;100704.70;1765810;80;21014;-67
2021/11/23 00:55:30;;;;;;;3.33;2.07;;;;;;;0.68;62.21;100699.92;1768806;80;21755;-64
2021/11/23 00:57:57;;;;;;;2.63;2.20;;;;;;;0.64;62.27;100705.05;1765444;80;21008;-65
2021/11/23 01:00:25;;;;;;;3.13;1.97;;;;;;;0.60;62.40;100704.89;1770460;80;21116;-67
2021/11/23 01:02:51;;;;;;;4.43;2.77;;;;;;;0.56;62.49;100703.45;1764463;80;21445;-66
2021/11/23 01:05:19;;;;;;;3.70;2.63;;;;;;;0.54;62.43;100708.80;1731701;81;21032;-66
2021/11/23 01:07:46;;;;;;;3.47;2.40;;;;;;;0.50;62.49;100711.79;1776788;80;21007;-67
2021/11/23 01:10:13;;;;;;;;;;;;;;;0.46;62.61;100708.55;1774104;79;21043;-68
2021/11/23 01:12:39;;;;;;;3.63;2.63;;;;;;;0.46;62.73;100713.80;1763051;79;20453;-67
2021/11/23 01:15:06;;;;;;;;;;;;;;;0.42;62.73;100720.23;1768047;80;21353;-66
2021/11/23 01:17:34;;;;;;;3.52;2.52;;;;;;;0.38;62.74;100718.78;1767411;79;20471;-67
2021/11/23 01:20:03;;;;;;;3.23;2.53;;;;;;;0.33;62.67;100721.73;1769992;79;20999;-66
2021/11/23 01:22:30;;;;;;;3.37;1.87;;;;;;;0.28;62.84;100721.22;1760729;80;20979;-66
2021/11/23 01:24:57;;;;;;;2.72;2.52;;;;;;;0.25;62.88;100717.53;1760581;80;21059;-66
2021/11/23 01:27:23;;;;;;;2.17;1.85;;;;;;;0.24;62.97;100718.47;1773777;79;21039;-67
2021/11/23 01:29:50;;;;;;;3.67;2.00;;;;;;;0.21;63.04;100720.47;1761195;80;21065;-67
2021/11/23 01:32:17;;;;;;;2.58;1.90;;;;;;;0.21;63.17;100724.41;1761115;80;21132;-67
2021/11/23 01:34:44;;;;;;;2.90;1.70;;;;;;;0.18;63.13;100723.69;1762684;80;21035;-65
2021/11/23 01:37:10;;;;;;;3.50;1.90;;;;;;;0.18;63.08;100727.62;1769820;80;21004;-65
2021/11/23 01:39:37;;;;;;;1.85;1.22;;;;;;;0.16;62.92;100724.27;1748789;80;21050;-67
2021/11/23 01:42:05;;;;;;;1.57;1.47;;;;;;;0.16;62.94;100730.00;1741426;80;21001;-67
2021/11/23 01:44:32;;;;;;;2.57;2.13;;;;;;;0.08;63.09;100727.94;1765755;80;21500;-66
2021/11/23 01:46:59;;;;;;;2.33;1.30;;;;;;;0.02;63.30;100731.45;1774695;80;21098;-63
2021/11/23 01:49:26;;;;;;;2.55;1.77;;;;;;;0.00;63.48;100739.45;1760256;80;20957;-65
2021/11/23 01:51:53;;;;;;;;;;;;;;;-0.02;63.54;100730.84;1762345;80;21538;-65
2021/11/23 01:54:21;;;;;;;3.63;2.00;;;;;;;-0.07;64.12;100731.19;1768886;80;20181;-66
2021/11/23 01:56:48;;;;;;;1.57;1.47;;;;;;;-0.14;64.31;100733.05;1768726;80;21275;-66
2021/11/23 01:59:16;;;;;;;3.10;1.87;;;;;;;-0.13;64.21;100732.08;1770741;80;20977;-65
2021/11/23 02:01:45;;;;;;;2.43;1.43;;;;;;;-0.14;64.52;100734.35;1749760;80;20975;-67
2021/11/23 02:04:12;;;;;;;6.05;1.98;;;;;;;-0.23;64.99;100729.28;1750752;80;21043;-64
2021/11/23 02:06:40;;;;;;;2.10;1.73;;;;;;;-0.28;65.21;100731.41;1776632;80;21110;-65
2021/11/23 02:09:06;;;;;;;2.83;1.43;;;;;;;-0.34;65.30;100729.20;1768022;80;21123;-66
2021/11/23 02:11:35;;;;;;;1.60;1.43;;;;;;;-0.38;65.47;100730.38;1778562;80;20981;-65
2021/11/23 02:14:03;;;;;;;1.63;1.53;;;;;;;-0.49;65.82;100734.59;1774761;80;20997;-67
2021/11/23 02:16:32;;;;;;;3.30;1.90;;;;;;;-0.46;65.70;100740.08;1774701;80;21075;-66
2021/11/23 02:19:02;;;;;;;2.03;1.73;;;;;;;-0.50;65.93;100739.94;1766033;79;20987;-65
2021/11/23 02:21:29;;;;;;;4.13;2.57;;;;;;;-0.47;66.00;100741.01;1771707;80;21522;-65
2021/11/23 02:23:58;;;;;;;4.53;2.53;;;;;;;-0.48;66.09;100739.35;1771293;80;21083;-65
2021/11/23 02:26:26;;;;;;;4.83;2.33;;;;;;;-0.53;66.29;100738.34;1753658;80;20983;-69
2021/11/23 02:28:53;;;;;;;5.40;2.73;;;;;;;-0.60;66.60;100741.87;1725814;82;21050;-66
2021/11/23 02:31:21;;;;;;;2.85;2.35;;;;;;;-0.66;66.64;100740.14;1770777;80;21048;-63
2021/11/23 02:33:50;;;;;;;2.77;2.53;;;;;;;-0.68;66.64;100745.52;1770915;79;21139;-66
2021/11/23 02:36:17;;;;;;;2.57;2.17;;;;;;;-0.73;66.62;100748.91;1771470;79;21520;-64
2021/11/23 02:38:48;;;;;;;4.80;2.00;;;;;;;-0.75;66.58;100749.48;1776442;80;20988;-65
2021/11/23 02:41:15;;;;;;;1.80;1.70;;;;;;;-0.75;66.52;100734.23;1764311;80;21044;-63
2021/11/23 02:43:42;;;;;;;6.93;2.17;;;;;;;-0.74;66.54;100734.61;1770829;80;21083;-65
2021/11/23 02:46:10;;;;;;;3.73;2.40;;;;;;;-0.77;66.75;100736.98;1776454;80;21023;-64
2021/11/23 02:48:37;;;;;;;3.10;2.53;;;;;;;-0.78;66.83;100744.45;1764851;80;21088;-65
2021/11/23 02:51:26;;;;;;;3.57;2.63;;;;;;;-0.81;67.07;100751.19;1758292;79;20983;-64
2021/11/23 02:53:37;;;;;;;3.73;2.70;;;;;;;-0.83;67.10;100747.84;1765663;80;21066;-65
2021/11/23 02:56:04;;;;;;;3.52;2.52;;;;;;;-0.85;67.37;100745.80;1771728;80;21044;-65
2021/11/23 02:58:33;;;;;;;2.80;2.60;;;;;;;-1.09;67.46;100715.59;1764637;80;21012;-65
2021/11/23 03:01:04;;;;;;;4.40;2.90;;;;;;;-0.87;67.34;100751.63;1759339;80;21001;-65
2021/11/23 03:03:32;;;;;;;4.50;2.90;;;;;;;-0.90;67.44;100753.98;1762988;80;20978;-64
2021/11/23 03:05:59;;;;;;;4.70;2.73;;;;;;;-0.92;67.70;100750.64;1769663;80;20971;-65
2021/11/23 03:08:27;;;;;;;3.20;2.53;;;;;;;-0.87;67.50;100742.46;1776657;80;21346;-65
2021/11/23 03:10:54;;;;;;;3.90;2.60;;;;;;;-0.92;67.39;100736.69;1767020;80;21041;-65
2021/11/23 03:13:20;;;;;;;3.10;2.45;;;;;;;-0.92;67.40;100740.17;1774689;80;21070;-63
2021/11/23 03:15:48;;;;;;;3.77;2.77;;;;;;;-0.88;67.42;100746.03;1775870;80;21053;-63
2021/11/23 03:18:16;;;;;;;3.33;2.53;;;;;;;-0.84;67.33;100747.02;1777610;80;21015;-65
2021/11/23 03:20:50;;;;;;;2.90;2.40;;;;;;;-0.84;67.25;100744.40;1772247;80;21000;-64
2021/11/23 03:23:12;;;;;;;6.00;2.90;;;;;;;-0.83;67.32;100754.39;1771048;80;21134;-64
2021/11/23 03:25:39;;;;;;;3.50;3.00;;;;;;;-0.84;67.38;100754.04;1773469;80;21019;-66
2021/11/23 03:29:50;;;;;;;2.83;2.30;;;;;;;-0.76;67.34;100749.59;1806352;77;22691;-64
2021/11/23 03:32:17;;;;;;;6.03;2.90;;;;;;;-0.80;67.40;100756.81;1778906;78;21485;-67
2021/11/23 03:34:46;;;;;;;3.67;3.22;;;;;;;-0.75;67.37;100753.86;1739371;79;20974;-65
2021/11/23 03:37:17;;;;;;;5.13;3.50;;;;;;;-0.73;67.39;100750.70;1716012;81;21128;-65
2021/11/23 03:39:44;;;;;;;4.60;3.10;;;;;;;-0.69;67.29;100750.37;1727563;81;21583;-65
2021/11/23 03:42:11;;;;;;;3.50;3.17;;;;;;;-0.68;67.30;100753.81;1732587;81;21017;-65
2021/11/23 03:44:38;;;;;;;3.37;2.77;;;;;;;-0.67;67.20;100755.02;1725960;81;21029;-64
2021/11/23 03:47:07;;;;;;;3.50;2.40;;;;;;;-0.68;67.33;100749.89;1711463;81;21040;-65
2021/11/23 03:49:36;;;;;;;2.97;2.40;;;;;;;-0.63;67.16;100751.72;1723186;81;20998;-64
2021/11/23 03:52:04;;;;;;;3.60;2.67;;;;;;;-0.61;67.04;100747.22;1724130;81;21008;-64
2021/11/23 03:54:31;;;;;;;2.93;2.73;;;;;;;-0.59;66.92;100750.56;1727535;81;21046;-63
2021/11/23 03:56:58;;;;;;;;;;;;;;;-0.59;67.00;100746.16;1734835;81;21034;-64
2021/11/23 03:59:24;;;;;;;3.00;2.70;;;;;;;-0.54;66.96;100750.27;1728026;81;20388;-64
2021/11/23 04:01:52;;;;;;;3.12;2.65;;;;;;;-0.56;67.05;100745.13;1696735;83;21076;-65
2021/11/23 04:04:19;;;;;;;4.07;2.80;;;;;;;-0.51;66.90;100742.17;1701952;83;21111;-66
2021/11/23 04:06:46;;;;;;;3.23;2.93;;;;;;;-0.50;66.88;100743.38;1665615;84;21589;-65
2021/11/23 04:09:12;;;;;;;;;;;;;;;-0.46;66.79;100734.84;1674468;84;21157;-68
2021/11/23 04:11:39;;;;;;;3.77;2.80;;;;;;;-0.45;66.76;100729.98;1679398;83;20142;-65
2021/11/23 04:14:07;;;;;;;2.77;2.53;;;;;;;-0.42;66.76;100734.98;1700441;83;21011;-65
2021/11/23 04:16:34;;;;;;;4.30;3.40;;;;;;;-0.42;66.73;100731.06;1721632;82;21025;-67
2021/11/23 04:19:01;;;;;;;3.93;3.23;;;;;;;-0.37;66.56;100732.89;1696980;83;21010;-66
2021/11/23 04:21:27;;;;;;;5.12;3.90;;;;;;;-0.34;66.57;100727.89;1700773;83;21542;-65
2021/11/23 04:23:54;;;;;;;3.72;2.90;;;;;;;-0.29;66.45;100731.86;1678004;84;21010;-71
2021/11/23 04:26:21;;;;;;;3.17;2.87;;;;;;;-0.28;66.41;100735.34;1690716;83;21054;-65
2021/11/23 04:28:48;;;;;;;2.97;2.77;;;;;;;-0.24;66.39;100737.63;1687855;83;21077;-66
2021/11/23 04:31:15;;;;;;;4.75;3.87;;;;;;;-0.26;66.42;100732.97;1685922;83;20998;-65
2021/11/23 04:33:42;;;;;;;5.33;3.07;;;;;;;-0.23;66.52;100735.38;1683542;83;21081;-66
2021/11/23 04:36:08;;;;;;;6.40;3.80;;;;;;;-0.23;66.42;100735.38;1664324;84;21063;-69
2021/11/23 04:38:35;;;;;;;6.35;4.95;;;;;;;-0.23;66.38;100735.83;1664972;84;20994;-64
2021/11/23 04:41:02;;;;;;;5.05;4.55;;;;;;;-0.25;66.35;100735.94;1671991;84;21015;-68
2021/11/23 04:43:29;;;;;;;3.63;3.33;;;;;;;-0.24;66.42;100730.25;1662073;84;21076;-70
2021/11/23 04:45:58;;;;;;;6.37;3.80;;;;;;;-0.35;66.40;100712.66;1686662;83;21552;-66
2021/11/23 04:48:25;;;;;;;4.20;3.90;;;;;;;-0.35;66.48;100716.59;1703533;83;21023;-67
2021/11/23 04:50:53;;;;;;;3.63;3.33;;;;;;;-0.40;66.81;100714.31;1691980;83;21137;-66
2021/11/23 04:53:19;;;;;;;4.90;4.00;;;;;;;-0.42;66.77;100719.27;1667006;84;21090;-64
2021/11/23 04:55:45;;;;;;;;;;;;;;;-0.45;66.64;100709.86;1644740;86;21037;-66
2021/11/23 04:58:12;;;;;;;4.97;3.70;;;;;;;-0.48;66.47;100714.47;1692401;83;20505;-67
2021/11/23 05:00:39;;;;;;;8.05;4.95;;;;;;;-0.51;66.46;100714.23;1661407;85;21105;-65
2021/11/23 05:03:05;;;;;;;8.88;3.87;;;;;;;-0.48;66.18;100710.55;1681874;84;21071;-65
2021/11/23 05:05:32;;;;;;;6.40;4.58;;;;;;;-0.41;66.01;100708.69;1695239;83;21021;-70
2021/11/23 05:07:59;;;;;;;7.17;4.43;;;;;;;-0.35;65.87;100708.73;1678479;84;21113;-66
2021/11/23 05:10:26;;;;;;;5.80;4.40;;;;;;;-0.30;65.80;100696.60;1700353;83;21048;-67
2021/11/23 05:12:53;;;;;;;10.45;6.22;;;;;;;-0.29;65.68;100699.13;1694704;83;21023;-68
2021/11/23 05:15:19;;;;;;;9.43;6.90;;;;;;;-0.22;65.90;100712.16;1691956;83;21012;-65
2021/11/23 05:17:47;;;;;;;14.03;6.83;;;;;;;-0.20;66.16;100702.88;1692032;83;20992;-67
2021/11/23 05:20:13;;;;;;;10.08;6.58;;;;;;;-0.18;66.30;100703.60;1687809;83;21062;-65
2021/11/23 05:22:42;;;;;;;12.33;7.03;;;;;;;-0.21;66.52;100702.05;1691524;83;21028;-64
2021/11/23 05:25:09;;;;;;;11.23;7.33;;;;;;;-0.20;66.60;100703.70;1690132;83;21098;-65
2021/11/23 05:27:36;;;;;;;11.27;6.50;;;;;;;-0.18;66.71;100711.94;1692170;83;21062;-66
2021/11/23 05:30:05;;;;;;;6.93;6.03;;;;;;;-0.17;66.52;100713.59;1694758;83;21179;-63
2021/11/23 05:32:34;;;;;;;7.50;5.30;;;;;;;-0.18;66.21;100715.88;1688236;83;21489;-65
2021/11/23 05:35:01;;;;;;;8.77;5.33;;;;;;;-0.18;65.86;100724.56;1684025;83;21097;-65
2021/11/23 05:37:28;;;;;;;7.57;4.57;;;;;;;-0.23;65.75;100723.59;1696230;84;21021;-65
2021/11/23 05:39:54;;;;;;;5.35;3.65;;;;;;;-0.24;65.53;100730.25;1682510;83;21093;-66
2021/11/23 05:42:21;;;;;;;5.78;4.05;;;;;;;-0.27;65.11;100729.14;1691410;83;20978;-65
2021/11/23 05:44:48;;;;;;;6.77;4.20;;;;;;;-0.27;64.99;100748.79;1700223;82;21037;-66
2021/11/23 05:47:14;;;;;;;5.43;4.00;;;;;;;-0.28;64.93;100753.69;1716346;82;21113;-63
2021/11/23 05:49:42;;;;;;;3.15;2.52;;;;;;;-0.27;64.74;100754.86;1713107;82;21109;-66
2021/11/23 05:52:09;;;;;;;5.73;3.90;;;;;;;-0.28;64.62;100746.66;1713813;82;21043;-65
2021/11/23 05:54:36;;;;;;;6.50;3.87;;;;;;;-0.25;63.98;100738.56;1707084;82;21022;-66
2021/11/23 05:57:03;;;;;;;;;;;;;;;-0.26;64.01;100739.52;1708921;82;21028;-67
2021/11/23 05:59:30;;;;;;;5.80;4.03;;;;;;;-0.23;63.96;100744.55;1721634;82;20136;-64
2021/11/23 06:01:56;;;;;;;5.08;3.90;;;;;;;-0.24;64.04;100748.59;1721493;82;21093;-63
2021/11/23 06:04:23;;;;;;;4.42;3.67;;;;;;;-0.21;63.94;100764.07;1713266;82;21104;-68
2021/11/23 06:06:51;;;;;;;8.47;4.07;;;;;;;-0.21;63.82;100784.58;1697260;83;21040;-64
2021/11/23 06:09:18;;;;;;;5.53;4.30;;;;;;;-0.18;63.96;100794.00;1703709;83;21052;-64
2021/11/23 06:11:45;;;;;;;5.95;5.10;;;;;;;-0.21;64.22;100797.68;1691826;83;21488;-64
2021/11/23 06:14:11;;;;;;;;;;;;;;;-0.19;64.08;100802.78;1653842;85;21070;-66
2021/11/23 06:16:43;;;;;;;5.17;4.63;;;;;;;-0.18;64.27;100803.17;1653329;85;20224;-64
2021/11/23 06:19:07;;;;;;;4.37;3.93;;;;;;;-0.15;64.00;100805.58;1658128;85;21059;-65
2021/11/23 06:21:34;;;;;;;9.67;5.43;;;;;;;-0.16;63.62;100803.89;1670071;84;21577;-65
2021/11/23 06:24:00;;;;;;;;;;;;;;;-0.17;63.69;100810.09;1670389;84;21014;-64
2021/11/23 06:26:27;;;;;;;4.97;4.37;;;;;;;-0.12;63.63;100813.69;1642049;84;20117;-65
2021/11/23 06:28:54;;;;;;;6.47;4.40;;;;;;;-0.17;63.76;100815.78;1697131;83;21091;-64
2021/11/23 06:31:21;;;;;;;8.73;6.40;;;;;;;-0.15;64.03;100807.34;1703167;83;21560;-67
2021/11/23 06:33:48;;;;;;;5.73;4.77;;;;;;;-0.13;63.92;100810.24;1702239;83;20992;-67
2021/11/23 06:36:15;;;;;;;9.80;5.83;;;;;;;-0.05;63.90;100810.53;1705344;83;21002;-65
2021/11/23 06:38:41;;;;;;;;;;;;;;;0.07;63.46;100815.37;1711320;83;21029;-70
2021/11/23 06:41:07;;;;;;;9.07;5.60;;;;;;;0.18;62.88;100812.81;1702073;83;20408;-66
2021/11/23 06:43:34;;;;;;;6.00;5.40;;;;;;;0.22;62.93;100817.86;1704557;83;21072;-68
2021/11/23 06:46:01;;;;;;;;;;;;;;;0.33;62.76;100819.23;1702068;83;21024;-65
2021/11/23 06:48:27;;;;;;;8.80;6.73;;;;;;;0.44;62.24;100823.72;1695586;83;20187;-66
2021/11/23 06:50:55;;;;;;;6.87;5.87;;;;;;;0.45;62.07;100824.89;1699838;83;21596;-68
2021/11/23 06:53:22;;;;;;;8.87;6.00;;;;;;;0.46;62.12;100817.88;1638992;86;21046;-65
2021/11/23 06:55:49;;;;;;;9.73;6.70;;;;;;;0.52;62.06;100819.56;1664477;84;21608;-64
2021/11/23 06:58:17;;;;;;;9.50;5.10;;;;;;;0.61;61.87;100819.87;1663350;85;21697;-65
2021/11/23 07:00:44;;;;;;;7.87;4.87;;;;;;;0.69;61.51;100816.20;1652867;85;21027;-66
2021/11/23 07:03:11;;;;;;;9.30;5.43;;;;;;;0.72;60.93;100814.67;1667151;84;21021;-65
2021/11/23 07:05:39;;;;;;;11.57;6.10;;;;;;;0.75;60.32;100811.35;1667121;84;21068;-65
2021/11/23 07:08:05;;;;;;;;;;;;;;;0.75;59.79;100818.36;1670204;84;21030;-63
2021/11/23 07:10:32;;;;;;;6.13;4.37;;;;;;;0.77;59.80;100819.94;1659205;84;20143;-65
2021/11/23 07:13:00;;;;;;;4.80;4.33;;;;;;;0.81;59.62;100815.77;1698798;83;21076;-67
2021/11/23 07:15:28;;;;;;;7.33;5.60;;;;;;;0.91;59.12;100820.70;1698867;83;21489;-67
2021/11/23 07:17:56;;;;;;;6.23;4.70;;;;;;;0.96;59.31;100814.62;1702193;83;21654;-65
2021/11/23 07:20:22;;;;;;;6.60;4.17;;;;;;;1.04;58.98;100811.45;1703265;83;21524;-66
2021/11/23 07:22:49;;;;;;;7.77;4.57;;;;;;;1.08;58.90;100815.52;1698519;83;21041;-65
2021/11/23 07:25:16;;;;;;;;;;;;;;;1.16;58.46;100817.07;1702153;83;21528;-66
2021/11/23 07:27:43;;;;;;;10.70;4.97;;;;;;;1.22;58.50;100817.08;1713555;83;20162;-65
2021/11/23 07:30:13;;;;;;;7.53;5.93;;;;;;;1.24;58.44;100822.57;1690396;83;21060;-66
2021/11/23 07:32:41;;;;;;;7.70;5.73;;;;;;;1.23;58.73;100823.54;1697673;83;21089;-66
2021/11/23 07:35:10;;;;;;;8.60;5.53;;;;;;;1.21;59.06;100821.99;1693675;83;21499;-68
2021/11/23 07:37:41;;;;;;;9.03;6.10;;;;;;;1.18;59.20;100824.36;1639671;86;21062;-67
2021/11/23 07:40:10;;;;;;;11.80;5.67;;;;;;;1.21;59.44;100824.13;1673719;84;21028;-66
2021/11/23 07:42:39;;;;;;;10.20;6.97;;;;;;;1.25;59.69;100826.06;1686552;83;21020;-65
2021/11/23 07:45:08;;;;;;;10.47;7.27;;;;;;;1.36;59.64;100821.66;1683789;83;21037;-65
2021/11/23 07:47:36;;;;;;;7.10;6.20;;;;;;;1.44;59.65;100818.92;1642069;87;21005;-68
2021/11/23 07:50:05;;;;;;;9.13;7.90;;;;;;;1.52;59.69;100817.36;1664909;84;21105;-67
2021/11/23 07:52:32;;;;;;;13.30;8.53;;;;;;;1.59;59.62;100815.11;1675738;84;21565;-68
2021/11/23 07:54:59;;;;;;;13.47;8.57;;;;;;;1.65;59.73;100804.61;1672121;84;21025;-66
2021/11/23 07:57:26;;;;;;;15.90;9.80;;;;;;;1.67;60.01;100808.77;1674236;84;21516;-67
2021/11/23 07:59:53;;;;;;;16.90;11.63;;;;;;;1.72;59.94;100811.89;1646617;86;22258;-67
2021/11/23 08:02:19;;;;;;;;;;;;;;;1.68;59.92;100806.52;1702487;83;21049;-65
2021/11/23 08:04:46;;;;;;;24.13;13.40;;;;;;;1.70;59.96;100812.49;1671782;84;20549;-68
2021/11/23 08:07:12;;;;;;;15.48;11.10;;;;;;;1.66;60.05;100815.49;1728967;82;21270;-69
2021/11/23 08:09:39;;;;;;;17.17;11.45;;;;;;;1.70;60.10;100812.98;1687236;83;21022;-68
2021/11/23 08:12:06;;;;;;;16.77;12.20;;;;;;;1.75;60.12;100806.86;1705409;82;21513;-68
2021/11/23 08:14:33;;;;;;;23.10;13.73;;;;;;;1.82;59.83;100804.61;1655761;85;21066;-69
2021/11/23 08:17:01;;;;;;;22.67;13.80;;;;;;;1.80;59.78;100810.47;1691226;83;21651;-67
2021/11/23 08:19:30;;;;;;;17.27;12.90;;;;;;;1.81;60.09;100805.09;1670816;84;21081;-69
2021/11/23 08:21:56;;;;;;;21.55;14.60;;;;;;;1.89;60.09;100805.80;1650476;86;21726;-68
2021/11/23 08:24:23;;;;;;;21.40;14.87;;;;;;;1.96;59.80;100801.73;1672901;84;21056;-71
2021/11/23 08:26:50;;;;;;;19.90;14.60;;;;;;;2.00;59.82;100800.53;1729215;82;21031;-69
2021/11/23 08:29:17;;;;;;;21.12;13.35;;;;;;;2.07;59.65;100799.09;1701717;83;22306;-67
2021/11/23 08:31:43;;;;;;;20.57;15.08;;;;;;;2.07;59.47;100795.16;1698086;83;21025;-69
2021/11/23 08:34:11;;;;;;;23.33;14.10;;;;;;;2.08;59.64;100795.98;1702183;83;21037;-67
2021/11/23 08:36:40;;;;;;;22.83;14.17;;;;;;;2.14;59.67;100790.22;1699807;83;21129;-73
2021/11/23 08:39:08;;;;;;;21.23;15.10;;;;;;;2.21;59.49;100785.32;1703279;83;21034;-68
2021/11/23 08:41:35;;;;;;;23.83;14.47;;;;;;;2.27;59.26;100786.96;1703199;83;20986;-68
2021/11/23 08:44:03;;;;;;;18.77;13.47;;;;;;;2.28;59.09;100794.37;1729887;81;21277;-67
2021/11/23 08:46:30;;;;;;;18.43;12.77;;;;;;;2.29;59.09;100788.98;1732467;81;21089;-68
2021/11/23 08:48:57;;;;;;;21.00;13.90;;;;;;;2.33;59.09;100780.38;1684076;83;21050;-68
2021/11/23 08:51:26;;;;;;;23.02;13.08;;;;;;;2.30;59.02;100776.69;1720275;82;21064;-68
2021/11/23 08:53:52;;;;;;;21.90;13.77;;;;;;;2.25;59.23;100785.42;1688138;83;21032;-68
2021/11/23 08:56:19;;;;;;;18.23;12.83;;;;;;;2.18;59.64;100787.70;1673644;85;21051;-68
2021/11/23 08:58:50;;;;;;;18.52;13.30;;;;;;;2.18;59.91;100788.19;1695786;83;21437;-66
2021/11/23 09:01:14;;;;;;;19.97;12.07;;;;;;;2.14;59.97;100784.47;1664226;85;21058;-69
2021/11/23 09:03:41;;;;;;;17.75;12.25;;;;;;;2.19;60.28;100774.92;1629035;86;21050;-69
2021/11/23 09:06:08;;;;;;;23.57;12.37;;;;;;;2.25;59.99;100773.59;1662395;85;21085;-68
2021/11/23 09:08:39;;;;;;;15.97;11.70;;;;;;;2.32;59.94;100774.77;1656400;86;21124;-66
2021/11/23 09:11:03;;;;;;;20.80;14.33;;;;;;;2.38;59.56;100776.90;1618046;87;21067;-68
2021/11/23 09:13:30;;;;;;;;;;;;;;;2.40;59.39;100771.52;1646368;85;21049;-69
2021/11/23 09:15:56;;;;;;;22.40;13.57;;;;;;;2.39;59.30;100768.52;1644796;85;20127;-68
2021/11/23 09:18:24;;;;;;;18.37;11.70;;;;;;;2.32;59.48;100762.94;1664942;85;21000;-67
2021/11/23 09:20:51;;;;;;;20.17;12.43;;;;;;;2.36;59.51;100768.78;1670154;85;21044;-72
2021/11/23 09:23:18;;;;;;;;;;;;;;;2.41;59.48;100764.82;1672354;84;21520;-68
2021/11/23 09:25:45;;;;;;;16.73;12.73;;;;;;;2.47;59.52;100760.85;1676996;84;20166;-70
2021/11/23 09:28:12;;;;;;;23.15;14.13;;;;;;;2.49;59.70;100763.70;1679034;84;21017;-69
2021/11/23 09:30:39;;;;;;;19.53;12.07;;;;;;;2.57;59.38;100762.24;1676515;84;21125;-70
2021/11/23 09:33:08;;;;;;;19.77;14.27;;;;;;;2.60;59.02;100764.61;1661952;85;21599;-67
2021/11/23 09:35:35;;;;;;;16.13;11.63;;;;;;;2.55;59.10;100760.22;1673020;84;21024;-68
2021/11/23 09:38:02;;;;;;;16.30;12.18;;;;;;;2.58;59.17;100762.13;1672431;84;21103;-68
2021/11/23 09:40:31;;;;;;;19.27;13.00;;;;;;;2.59;59.10;100762.46;1674069;84;21065;-69
2021/11/23 09:42:59;;;;;;;18.03;11.20;;;;;;;2.64;59.03;100764.24;1660161;84;21113;-68
2021/11/23 09:45:27;;;;;;;13.20;10.57;;;;;;;2.68;58.95;100763.52;1673587;84;20997;-68
2021/11/23 09:47:54;;;;;;;13.27;10.73;;;;;;;2.68;58.51;100759.56;1674322;84;21089;-67
2021/11/23 09:50:21;;;;;;;16.23;10.00;;;;;;;2.69;58.24;100764.70;1674289;84;21568;-67
2021/11/23 09:52:48;;;;;;;16.90;11.70;;;;;;;2.68;58.29;100755.61;1658683;85;21079;-69
2021/11/23 09:55:16;;;;;;;10.70;9.48;;;;;;;2.71;58.20;100756.20;1673438;84;21580;-68
2021/11/23 09:57:44;;;;;;;14.30;11.87;;;;;;;2.74;58.08;100755.09;1701004;83;21132;-69
2021/11/23 10:00:31;;;;;;;15.63;11.17;;;;;;;2.72;58.08;100747.32;1682211;84;21483;-68
2021/11/23 10:03:30;;;;;;;15.18;11.30;;;;;;;2.75;58.08;100747.57;1653985;85;21028;-69
2021/11/23 10:06:14;;;;;;;12.67;10.23;;;;;;;2.73;58.21;100738.94;1615492;87;21531;-67
2021/11/23 10:08:43;;;;;;;14.33;11.00;;;;;;;2.72;58.40;100739.91;1613965;87;21069;-69
2021/11/23 10:11:12;;;;;;;18.47;12.03;;;;;;;2.73;58.11;100741.11;1661026;85;21034;-69
2021/11/23 10:13:52;;;;;;;13.90;11.60;;;;;;;2.74;57.98;100739.30;1649609;85;20989;-67
2021/11/23 10:16:21;;;;;;;17.17;12.80;;;;;;;2.75;58.12;100726.97;1662422;85;21536;-67
2021/11/23 10:18:50;;;;;;;17.93;11.97;;;;;;;2.74;58.13;100728.77;1663585;85;21044;-72
2021/11/23 10:21:20;;;;;;;20.20;11.97;;;;;;;2.72;58.02;100729.39;1663823;85;21032;-70
2021/11/23 10:23:52;;;;;;;16.23;11.97;;;;;;;2.69;58.26;100727.00;1663468;85;21000;-69
2021/11/23 10:26:24;;;;;;;17.50;12.20;;;;;;;2.70;58.52;100725.56;1666041;85;21603;-69
2021/11/23 10:29:04;;;;;;;23.60;11.90;;;;;;;2.81;58.26;100731.74;1661266;85;20997;-71
2021/11/23 10:31:36;;;;;;;18.83;11.53;;;;;;;2.83;58.12;100725.87;1666360;85;21010;-69
2021/11/23 10:34:05;;;;;;;16.50;12.70;;;;;;;2.85;58.12;100722.13;1660978;82;21110;-68
2021/11/23 10:36:44;;;;;;;18.63;13.40;;;;;;;2.84;58.24;100719.13;1665167;85;21024;-69
2021/11/23 10:39:19;;;;;;;17.27;11.50;;;;;;;2.84;58.25;100719.13;1664291;85;21470;-68
2021/11/23 10:41:56;;;;;;;13.97;11.43;;;;;;;2.83;58.44;100708.27;1666122;85;21010;-68
2021/11/23 10:44:27;;;;;;;17.23;13.20;;;;;;;2.82;58.25;100703.12;1660250;85;21058;-70
2021/11/23 10:47:06;;;;;;;22.10;13.53;;;;;;;2.82;58.39;100701.31;1663924;85;20977;-68
2021/11/23 10:49:44;;;;;;;22.43;14.03;;;;;;;2.82;58.38;100696.05;1666154;85;21567;-68
2021/11/23 10:52:34;;;;;;;18.10;12.13;;;;;;;2.82;58.36;100692.09;1666100;85;20993;-68
2021/11/23 10:55:01;;;;;;;16.97;12.57;;;;;;;2.73;58.38;100695.05;1665194;85;21566;-68
2021/11/23 10:57:27;;;;;;;15.23;11.68;;;;;;;2.67;58.63;100696.85;1667362;85;21498;-70
2021/11/23 10:59:54;;;;;;;17.03;12.50;;;;;;;2.64;58.80;100697.62;1639490;86;21112;-75
2021/11/23 11:02:20;;;;;;;18.65;13.08;;;;;;;2.64;59.05;100691.04;1657262;85;21004;-70
2021/11/23 11:04:51;;;;;;;21.07;13.33;;;;;;;2.68;59.08;100696.39;1686997;83;21137;-71
2021/11/23 11:07:20;;;;;;;16.13;12.47;;;;;;;2.72;59.03;100689.41;1662863;85;21172;-73
2021/11/23 11:09:48;;;;;;;17.80;13.53;;;;;;;2.79;59.17;100689.74;1666033;85;21056;-75
2021/11/23 11:12:16;;;;;;;20.80;12.97;;;;;;;2.81;58.68;100689.62;1665467;83;21047;-73
2021/11/23 11:14:45;;;;;;;20.33;13.60;;;;;;;2.80;58.54;100682.67;1666408;85;21091;-75
2021/11/23 11:17:12;;;;;;;20.67;13.07;;;;;;;2.79;58.65;100692.84;1666579;85;22509;-73
2021/11/23 11:19:49;;;;;;;16.70;12.67;;;;;;;2.78;58.81;100682.80;1643038;85;21112;-71
2021/11/23 11:22:19;;;;;;;17.47;12.30;;;;;;;2.81;58.71;100674.65;1673335;84;21009;-72
2021/11/23 11:25:10;;;;;;;16.83;11.70;;;;;;;2.82;58.74;100675.48;1647943;84;21533;-72
2021/11/23 11:27:40;;;;;;;18.33;11.00;;;;;;;2.82;58.76;100675.48;1666639;84;21096;-72
2021/11/23 11:30:36;;;;;;;14.00;10.53;;;;;;;2.79;58.84;100675.27;1673160;84;21025;-72
2021/11/23 11:33:14;;;;;;;12.90;10.47;;;;;;;2.76;58.96;100672.88;1647147;84;21083;-71
2021/11/23 11:35:52;;;;;;;11.90;9.20;;;;;;;2.76;59.11;100671.56;1647636;85;21084;-72